Aérodrome :
LOGIN :

S'inscrire | Disclaimer

   EN    FR    IT 

 










Légende :    VFR   VFR Marginal   IFR   IFR Intensif   IFR Très Intensif
Visi : 
Plafond : 
>= 8 km
>= 3000ft
5 à 8 km
1000 à 3000 ft
1500m à 5 km
500 à 1000 ft
800 à 1500m
200 à 500 ft
< 800m
< 200 ft
Symboles :   Orages  Brouillard  Fortes neiges  Fortes précipitations  Vent > 20 kt
SIGMETs :   Divers  Orages  Givrage  Turbulence  Onde Orograph.  Cendres Volcan.







- Altitude de l'aérodrome : 74 ft
- Code IATA : LRH
- Voir les cartes d'approche


LFBH - La Rochelle Ile de Ré

DERNIER METAR :
  • 131500Z AUTO 19007KT CAVOK 15/11 Q1028 NOSIG

METARs EXPIRÉS :
  • 131430Z AUTO 20007KT CAVOK 15/11 Q1028 NOSIG
  • 131400Z AUTO 20008KT CAVOK 15/12 Q1028 TEMPO VV///
  • 131330Z AUTO 20007KT 9999 FEW006 14/12 Q1028 TEMPO 1500 BCFG BKN003
  • 131300Z AUTO 20007KT 160V220 9999 VV/// 13/12 Q1028 TEMPO BKN005
  • 131230Z AUTO 20007KT 0900 0550 R27/1200U FG VV/// 12/12 Q1028 TEMPO BKN005 BECMG 9999 NSW

TAF AMD TAF LFBH
Valide du 13 à 14h jusqu'au 14 à 12h UTC


131451Z 1314/1412 20005KT CAVOK
BECMG 1318/1320 3000 BR NSC
BECMG 1406/1408 12010KT 9999 NSW BKN020
ATIS : +33 5 46 00 13 92
Pas de NOTAMs connus pour ce terrain.



MET'MAP, la Météo Aéronautique d'un coup d'oeil ! - Copyright ORBIFLY Décembre 2007 - Disclaimer

ORBIFLY MET'MAP TEAM :

Programmation & Développement : Alexandra Zaïnal
Conception & Développement : Baudouin d'Aumeries
Co-Programmation & Développement : Marc-Olivier Méhu
Soutien technique & logistique : Manuel Goepfert

Contact : metmap@orbifly.com




SOURCES & CREDITS :

   NOAA